Time;durP1;ratioP1;P1;durP2;ratioP2;P2;SDS_P1;SDS_P2;PMS_P1;PMS_P2;Temp;Humidity;BMP_temperature;BMP_pressure;BME280_temperature;BME280_humidity;BME280_pressure;Samples;Min_cycle;Max_cycle;Signal;HPM_P1;HPM_P2
2023/06/01 00:00:50;;;;;;;7.80;5.20;;;;;;;16.37;75.87;101296.78;4927131;29;20075;-77
2023/06/01 00:03:17;;;;;;;10.82;5.30;;;;;;;16.32;75.93;101290.41;4935989;29;20055;-78
2023/06/01 00:05:43;;;;;;;10.70;5.22;;;;;;;16.27;76.32;101298.84;4937896;29;20146;-77
2023/06/01 00:08:10;;;;;;;9.82;5.65;;;;;;;16.25;76.38;101299.03;4932475;29;20567;-79
2023/06/01 00:10:36;;;;;;;8.90;5.57;;;;;;;16.17;76.78;101293.81;4933250;29;20134;-76
2023/06/01 00:13:03;;;;;;;12.27;5.75;;;;;;;16.11;77.00;101289.22;4929819;29;20203;-78
2023/06/01 00:15:30;;;;;;;10.50;5.47;;;;;;;16.06;77.29;101296.88;4929830;29;20123;-77
2023/06/01 00:18:00;;;;;;;9.25;5.88;;;;;;;15.96;77.88;101296.28;4935991;29;20475;-77
2023/06/01 00:20:28;;;;;;;10.70;5.93;;;;;;;15.91;78.10;101295.97;4936266;29;20060;-77
2023/06/01 00:22:55;;;;;;;11.00;5.90;;;;;;;15.90;78.48;101292.50;4928619;29;20044;-77
2023/06/01 00:25:22;;;;;;;11.90;5.88;;;;;;;15.89;78.67;101303.25;4936738;29;20052;-78
2023/06/01 00:27:48;;;;;;;9.65;5.82;;;;;;;15.83;78.86;101298.66;4936519;29;20449;-78
2023/06/01 00:30:15;;;;;;;9.82;6.15;;;;;;;15.79;79.04;101302.63;4929703;29;20143;-78
2023/06/01 00:32:41;;;;;;;12.63;5.38;;;;;;;15.76;79.24;101308.25;4934090;29;20381;-77
2023/06/01 00:35:10;;;;;;;9.48;5.60;;;;;;;15.68;79.62;101309.13;4937876;29;20142;-79
2023/06/01 00:37:38;;;;;;;9.25;5.50;;;;;;;15.61;79.87;101305.53;4936346;29;20076;-79
2023/06/01 00:40:05;;;;;;;9.82;5.60;;;;;;;15.58;80.22;101306.72;4940068;29;20079;-78
2023/06/01 00:42:32;;;;;;;14.05;5.63;;;;;;;15.51;80.67;101305.72;4939364;29;20140;-78
2023/06/01 00:44:59;;;;;;;11.82;5.30;;;;;;;15.44;80.96;101296.03;4940906;29;20059;-77
2023/06/01 00:47:26;;;;;;;12.05;5.72;;;;;;;15.41;81.18;101305.09;4940403;29;20400;-80
2023/06/01 00:49:53;;;;;;;9.40;5.47;;;;;;;15.40;81.36;101300.81;4939698;29;20056;-78
2023/06/01 00:52:23;;;;;;;9.32;5.43;;;;;;;15.37;81.32;101308.25;4934929;29;20052;-77
2023/06/01 00:54:49;;;;;;;8.75;5.25;;;;;;;15.36;81.28;101304.78;4935398;29;20048;-77
2023/06/01 00:57:16;;;;;;;9.57;5.20;;;;;;;15.38;81.25;101305.44;4931275;29;20100;-79
2023/06/01 00:59:43;;;;;;;11.05;5.15;;;;;;;15.38;81.28;101308.09;4932915;29;20135;-78
2023/06/01 01:02:13;;;;;;;9.65;5.30;;;;;;;15.38;81.22;101313.34;4934459;29;20135;-77
2023/06/01 01:04:40;;;;;;;8.20;4.93;;;;;;;15.37;81.38;101310.88;4939131;29;20430;-77
2023/06/01 01:07:20;;;;;;;9.88;5.00;;;;;;;15.31;81.27;101304.47;4933593;29;20472;-77
2023/06/01 01:09:54;;;;;;;7.03;5.03;;;;;;;15.27;81.57;101317.19;4938580;29;20087;-77
2023/06/01 01:12:27;;;;;;;8.20;5.18;;;;;;;15.24;81.76;101316.69;4934152;29;20110;-77
2023/06/01 01:15:02;;;;;;;10.60;5.20;;;;;;;15.22;81.84;101313.41;4939840;29;20054;-77
2023/06/01 01:17:38;;;;;;;9.05;5.05;;;;;;;15.18;81.69;101312.09;4937478;29;20056;-78
2023/06/01 01:20:10;;;;;;;8.23;5.15;;;;;;;15.17;82.20;101315.72;4932445;29;20468;-77
2023/06/01 01:22:56;;;;;;;12.23;5.20;;;;;;;15.17;82.14;101311.28;4939758;29;20155;-77
2023/06/01 01:25:41;;;;;;;10.35;5.13;;;;;;;15.08;82.19;101312.31;4934747;29;20103;-78
2023/06/01 01:28:16;;;;;;;7.80;4.90;;;;;;;15.06;82.34;101318.75;4938777;29;20135;-78
2023/06/01 01:30:47;;;;;;;8.50;4.90;;;;;;;15.00;82.65;101319.41;4935150;29;20544;-77
2023/06/01 01:33:15;;;;;;;9.27;5.50;;;;;;;15.01;82.54;101313.16;4938132;29;20054;-80
2023/06/01 01:35:42;;;;;;;7.43;5.22;;;;;;;14.97;82.74;101314.47;4933613;29;20075;-79
2023/06/01 01:38:09;;;;;;;8.10;5.03;;;;;;;14.92;82.85;101314.97;4940761;29;20488;-79
2023/06/01 01:40:36;;;;;;;9.43;5.00;;;;;;;14.87;83.15;101312.84;4936114;29;20118;-79
2023/06/01 01:43:03;;;;;;;10.25;5.05;;;;;;;14.87;83.24;101315.47;4942434;29;20115;-78
2023/06/01 01:45:30;;;;;;;14.07;5.38;;;;;;;14.84;83.18;101315.81;4932000;29;20139;-79
2023/06/01 01:48:06;;;;;;;9.48;5.00;;;;;;;14.85;83.08;101316.63;4939864;29;20075;-77
2023/06/01 01:50:46;;;;;;;11.30;5.07;;;;;;;14.82;83.29;101323.06;4932788;29;20139;-79
2023/06/01 01:53:13;;;;;;;8.82;4.90;;;;;;;14.76;83.47;101320.25;4927476;29;20115;-77
2023/06/01 01:55:40;;;;;;;18.42;6.20;;;;;;;14.73;83.63;101326.69;4938388;29;20051;-78
2023/06/01 01:58:07;;;;;;;11.63;5.70;;;;;;;14.70;83.75;101329.66;4927352;29;20501;-77
2023/06/01 02:00:34;;;;;;;11.18;5.60;;;;;;;14.66;84.08;101323.06;4939650;29;20488;-78
2023/06/01 02:03:02;;;;;;;12.57;5.47;;;;;;;14.59;84.33;101322.94;4940939;29;20106;-76
2023/06/01 02:05:28;;;;;;;10.57;5.78;;;;;;;14.55;84.50;101326.06;4941450;29;20107;-77
2023/06/01 02:07:55;;;;;;;10.38;5.15;;;;;;;14.47;84.89;101323.41;4949693;29;20079;-77
2023/06/01 02:10:22;;;;;;;10.52;5.45;;;;;;;14.44;85.18;101315.84;4942401;29;20083;-77
2023/06/01 02:12:51;;;;;;;14.93;6.15;;;;;;;14.40;85.55;101322.38;4940339;29;20142;-77
2023/06/01 02:15:18;;;;;;;10.95;5.78;;;;;;;14.34;85.93;101309.88;4933209;29;20075;-77
2023/06/01 02:17:44;;;;;;;9.48;6.18;;;;;;;14.30;86.37;101314.63;4936871;29;20139;-78
2023/06/01 02:20:14;;;;;;;11.00;6.07;;;;;;;14.25;86.61;101315.13;4935031;29;20071;-78
2023/06/01 02:22:40;;;;;;;14.13;6.55;;;;;;;14.20;86.98;101316.59;4936291;29;20644;-78
2023/06/01 02:25:07;;;;;;;12.02;6.15;;;;;;;14.19;87.42;101321.03;4926991;29;20063;-78
2023/06/01 02:27:34;;;;;;;13.82;6.50;;;;;;;14.14;87.64;101323.38;4937136;29;20066;-78
2023/06/01 02:30:01;;;;;;;9.60;6.15;;;;;;;14.15;88.07;101319.75;4931055;29;20052;-77
2023/06/01 02:32:30;;;;;;;13.18;6.55;;;;;;;14.09;88.38;101316.94;4932230;29;20075;-78
2023/06/01 02:34:57;;;;;;;13.13;6.70;;;;;;;14.04;88.67;101317.41;4936490;29;20373;-77
2023/06/01 02:37:25;;;;;;;12.60;6.78;;;;;;;13.97;88.91;101303.25;4932861;29;20147;-77
2023/06/01 02:39:51;;;;;;;11.98;6.85;;;;;;;13.96;89.43;101309.50;4936281;29;20043;-77
2023/06/01 02:42:18;;;;;;;11.23;6.88;;;;;;;13.96;89.65;101312.13;4936664;29;20138;-77
2023/06/01 02:44:44;;;;;;;14.10;7.43;;;;;;;13.99;89.79;101313.63;4928332;29;20512;-77
2023/06/01 02:47:11;;;;;;;13.27;7.63;;;;;;;13.93;89.95;101325.63;4933749;29;20111;-76
2023/06/01 02:49:38;;;;;;;17.10;7.25;;;;;;;13.90;90.22;101324.13;4937102;29;20138;-77
2023/06/01 02:52:05;;;;;;;10.73;7.05;;;;;;;13.84;90.59;101321.31;4937065;29;20467;-78
2023/06/01 02:54:33;;;;;;;16.25;7.90;;;;;;;13.81;90.81;101326.88;4927651;29;20058;-78
2023/06/01 02:56:59;;;;;;;14.85;8.00;;;;;;;13.75;91.11;101325.72;4930813;29;20056;-77
2023/06/01 02:59:26;;;;;;;19.02;7.75;;;;;;;13.74;91.47;101329.34;4926052;29;20063;-76
2023/06/01 03:01:52;;;;;;;14.90;7.88;;;;;;;13.74;91.73;101331.13;4932847;29;20515;-77
2023/06/01 03:04:20;;;;;;;18.33;7.95;;;;;;;13.66;91.99;101324.06;4936038;29;20134;-79
2023/06/01 03:06:49;;;;;;;16.83;8.13;;;;;;;13.60;92.36;101320.25;4922838;29;20138;-77
2023/06/01 03:09:16;;;;;;;12.73;8.30;;;;;;;13.57;92.74;101328.47;4926502;29;20504;-78
2023/06/01 03:11:44;;;;;;;12.02;7.82;;;;;;;13.51;93.22;101329.09;4937325;29;20157;-78
2023/06/01 03:14:10;;;;;;;18.02;7.80;;;;;;;13.50;93.41;101340.59;4931776;29;20130;-79
2023/06/01 03:16:37;;;;;;;14.13;7.40;;;;;;;13.43;93.77;101331.69;4936616;29;20079;-78
2023/06/01 03:19:04;;;;;;;15.25;8.52;;;;;;;13.41;94.06;101338.91;4938381;29;20139;-78
2023/06/01 03:21:31;;;;;;;13.38;7.32;;;;;;;13.39;94.42;101335.59;4935813;29;20064;-78
2023/06/01 03:23:57;;;;;;;13.15;7.72;;;;;;;13.37;94.88;101339.38;4936737;29;20043;-77
2023/06/01 03:26:24;;;;;;;14.63;8.27;;;;;;;13.35;95.08;101342.16;4922944;29;20137;-78
2023/06/01 03:28:52;;;;;;;15.43;8.05;;;;;;;13.37;95.37;101344.63;4939969;29;20054;-78
2023/06/01 03:31:19;;;;;;;16.40;9.15;;;;;;;13.30;95.67;101339.16;4933296;29;20503;-79
2023/06/01 03:33:45;;;;;;;13.70;8.85;;;;;;;13.27;95.99;101350.00;4936122;29;20520;-79
2023/06/01 03:36:12;;;;;;;17.08;9.45;;;;;;;13.22;96.39;101347.88;4934420;29;20099;-78
2023/06/01 03:38:38;;;;;;;15.05;10.70;;;;;;;13.20;96.68;101354.25;4940241;29;20123;-78
2023/06/01 03:41:05;;;;;;;21.67;10.00;;;;;;;13.17;96.78;101354.56;4941734;29;20052;-79
2023/06/01 03:43:32;;;;;;;13.95;8.88;;;;;;;13.21;96.76;101351.47;4938762;29;20091;-78
2023/06/01 03:46:00;;;;;;;16.95;10.43;;;;;;;13.14;96.91;101360.09;4939526;29;20456;-78
2023/06/01 03:48:27;;;;;;;13.73;9.88;;;;;;;13.17;97.01;101359.81;4937365;29;20090;-78
2023/06/01 03:50:53;;;;;;;20.08;10.13;;;;;;;13.10;97.22;101366.63;4931344;29;20131;-78
2023/06/01 03:53:20;;;;;;;17.55;10.43;;;;;;;13.15;97.49;101367.00;4936775;29;20090;-78
2023/06/01 03:55:48;;;;;;;20.17;10.10;;;;;;;13.18;97.31;101369.34;4940024;29;20131;-79
2023/06/01 03:58:14;;;;;;;15.45;9.85;;;;;;;13.25;97.20;101365.09;4938434;29;20143;-79
2023/06/01 04:00:41;;;;;;;20.77;11.35;;;;;;;13.56;96.53;101368.91;4932007;29;20070;-80
2023/06/01 04:03:09;;;;;;;16.95;9.82;;;;;;;14.15;94.65;101358.41;4933845;29;20079;-76
2023/06/01 04:05:37;;;;;;;16.10;9.45;;;;;;;14.57;92.13;101356.50;4936727;29;20079;-78
2023/06/01 04:08:03;;;;;;;15.60;9.80;;;;;;;14.99;89.61;101349.38;4935840;29;20051;-78
2023/06/01 04:10:30;;;;;;;18.67;9.98;;;;;;;15.12;88.06;101339.16;4941197;29;20115;-79
2023/06/01 04:12:57;;;;;;;17.42;10.38;;;;;;;15.39;86.12;101338.72;4931883;29;20044;-77
2023/06/01 04:15:23;;;;;;;18.33;10.70;;;;;;;15.36;85.51;101340.88;4929013;29;20488;-78
2023/06/01 04:17:50;;;;;;;18.02;11.15;;;;;;;15.09;85.81;101339.50;4935522;29;20130;-77
2023/06/01 04:20:18;;;;;;;22.88;11.20;;;;;;;15.01;85.99;101336.88;4927361;29;20054;-77
2023/06/01 04:22:46;;;;;;;18.88;12.10;;;;;;;15.19;86.22;101346.19;4935693;29;20082;-77
2023/06/01 04:25:17;;;;;;;21.00;11.35;;;;;;;15.46;84.94;101342.34;4929232;29;20079;-77
2023/06/01 04:27:45;;;;;;;14.57;11.07;;;;;;;15.45;84.72;101339.88;4936306;29;20055;-77
2023/06/01 04:30:13;;;;;;;23.95;11.77;;;;;;;15.19;84.78;101348.00;4933741;29;20059;-78
2023/06/01 04:32:41;;;;;;;22.50;12.38;;;;;;;15.09;85.37;101355.31;4929375;29;20135;-78
2023/06/01 04:35:09;;;;;;;22.85;12.95;;;;;;;15.15;85.89;101355.44;4941001;29;20051;-79
2023/06/01 04:37:39;;;;;;;18.30;13.18;;;;;;;14.68;86.87;101357.97;4938100;29;20066;-78
2023/06/01 04:40:09;;;;;;;21.27;12.90;;;;;;;14.56;87.90;101364.56;4938841;29;20714;-77
2023/06/01 04:42:38;;;;;;;22.95;12.88;;;;;;;14.86;87.89;101358.63;4940556;29;20055;-77
2023/06/01 04:45:07;;;;;;;22.50;14.95;;;;;;;15.04;86.49;101363.72;4937765;29;20424;-77
2023/06/01 04:47:37;;;;;;;22.58;14.57;;;;;;;14.94;86.45;101358.63;4938523;29;20062;-77
2023/06/01 04:50:05;;;;;;;23.70;14.55;;;;;;;14.85;86.77;101367.50;4941908;29;20055;-76
2023/06/01 04:52:32;;;;;;;23.13;15.27;;;;;;;14.45;87.61;101370.16;4930654;29;20052;-78
2023/06/01 04:55:00;;;;;;;24.92;15.57;;;;;;;14.61;88.17;101367.53;4937042;29;20185;-79
2023/06/01 04:57:26;;;;;;;26.27;15.10;;;;;;;14.64;88.18;101361.94;4941497;29;20083;-79
2023/06/01 04:59:56;;;;;;;24.95;16.33;;;;;;;14.97;87.60;101368.00;4939051;29;20059;-77
2023/06/01 05:02:23;;;;;;;27.77;17.35;;;;;;;15.07;86.69;101358.09;4929651;29;20043;-79
2023/06/01 05:04:52;;;;;;;23.60;16.35;;;;;;;14.85;86.46;101359.59;4936386;29;20078;-77
2023/06/01 05:07:21;;;;;;;30.25;17.55;;;;;;;14.77;86.71;101364.88;4915637;29;20381;-78
2023/06/01 05:09:48;;;;;;;30.05;18.92;;;;;;;14.85;86.39;101359.59;4923739;29;20079;-77
2023/06/01 05:12:16;;;;;;;28.45;17.80;;;;;;;14.97;86.30;101372.44;4925319;29;20431;-78
2023/06/01 05:14:42;;;;;;;27.90;19.02;;;;;;;15.19;85.87;101364.66;4930613;29;20054;-76
2023/06/01 05:17:09;;;;;;;31.73;19.65;;;;;;;15.38;84.97;101368.75;4936256;29;20523;-78
2023/06/01 05:19:36;;;;;;;31.73;20.17;;;;;;;14.92;85.12;101365.03;4938210;29;20069;-78
2023/06/01 05:22:02;;;;;;;38.17;22.15;;;;;;;15.43;84.39;101363.78;4931181;29;20076;-76
2023/06/01 05:24:29;;;;;;;30.73;20.40;;;;;;;15.83;82.25;101369.91;4933798;29;20054;-78
2023/06/01 05:26:56;;;;;;;29.67;19.67;;;;;;;16.81;80.18;101368.28;4932328;29;20156;-77
2023/06/01 05:29:24;;;;;;;28.08;20.23;;;;;;;17.05;78.09;101369.84;4938849;29;20083;-77
2023/06/01 05:31:50;;;;;;;29.17;19.88;;;;;;;17.13;76.69;101363.66;4935399;29;20050;-77
2023/06/01 05:34:17;;;;;;;29.92;19.23;;;;;;;16.54;77.85;101368.81;4923847;29;20059;-77
2023/06/01 05:36:44;;;;;;;31.45;20.05;;;;;;;16.52;78.19;101374.28;4925296;29;20048;-76
2023/06/01 05:39:10;;;;;;;28.90;19.60;;;;;;;16.52;78.94;101368.16;4937542;29;20047;-78
2023/06/01 05:41:37;;;;;;;31.23;20.95;;;;;;;16.96;77.39;101367.50;4935641;29;20066;-77
2023/06/01 05:44:04;;;;;;;26.38;19.00;;;;;;;16.84;77.68;101369.75;4925966;29;20079;-78
2023/06/01 05:46:32;;;;;;;30.38;20.27;;;;;;;16.43;78.00;101375.34;4928051;29;20104;-79
2023/06/01 05:48:59;;;;;;;35.08;20.02;;;;;;;17.25;76.51;101376.28;4933075;29;20082;-78
2023/06/01 05:51:25;;;;;;;28.88;18.98;;;;;;;17.83;74.73;101371.16;4931588;29;20062;-79
2023/06/01 05:53:52;;;;;;;27.90;18.15;;;;;;;18.20;72.77;101368.31;4940764;29;20139;-78
2023/06/01 05:56:19;;;;;;;30.65;18.23;;;;;;;17.94;72.14;101354.81;4933009;29;20118;-79
2023/06/01 05:58:50;;;;;;;29.52;19.73;;;;;;;17.92;72.10;101364.75;4937741;29;20090;-78
2023/06/01 06:01:16;;;;;;;31.83;20.27;;;;;;;18.34;71.81;101363.16;4932927;29;20468;-78
2023/06/01 06:03:45;;;;;;;32.03;20.42;;;;;;;17.33;73.12;101374.53;4941269;29;20052;-78
2023/06/01 06:06:12;;;;;;;28.08;21.13;;;;;;;17.44;74.11;101385.50;4939888;29;20044;-78
2023/06/01 06:08:39;;;;;;;32.75;19.60;;;;;;;18.53;72.02;101367.81;4939109;29;20051;-78
2023/06/01 06:11:05;;;;;;;30.20;18.38;;;;;;;19.59;69.85;101374.72;4930390;29;20083;-77
2023/06/01 06:13:32;;;;;;;32.28;20.17;;;;;;;20.07;66.56;101351.59;4928177;29;20087;-77
2023/06/01 06:15:59;;;;;;;26.10;19.90;;;;;;;19.12;68.12;101356.88;4930452;29;20420;-77
2023/06/01 06:18:25;;;;;;;30.70;20.98;;;;;;;19.61;68.25;101363.91;4940626;29;20055;-79
2023/06/01 06:20:53;;;;;;;28.05;21.42;;;;;;;19.46;67.21;101364.81;4926680;29;20103;-78
2023/06/01 06:23:20;;;;;;;32.75;23.05;;;;;;;18.39;69.57;101374.00;4936317;29;20051;-77
2023/06/01 06:25:48;;;;;;;28.70;22.08;;;;;;;18.61;70.30;101378.31;4940606;29;20052;-78
2023/06/01 06:28:15;;;;;;;36.45;24.95;;;;;;;17.96;71.68;101386.38;4938499;29;20142;-78
2023/06/01 06:30:41;;;;;;;29.95;22.30;;;;;;;18.44;70.91;101374.25;4932236;29;20067;-78
2023/06/01 06:33:08;;;;;;;27.58;21.85;;;;;;;19.41;68.76;101377.03;4938277;29;20547;-76
2023/06/01 06:35:34;;;;;;;28.30;21.80;;;;;;;19.96;67.46;101369.97;4939343;29;20139;-77
2023/06/01 06:38:02;;;;;;;32.05;21.60;;;;;;;20.03;66.25;101363.66;4936548;29;20460;-77
2023/06/01 06:40:29;;;;;;;34.47;21.52;;;;;;;19.80;65.97;101363.19;4936517;29;20138;-78
2023/06/01 06:42:56;;;;;;;27.60;20.42;;;;;;;19.45;67.22;101370.31;4940035;29;20567;-77
2023/06/01 06:45:22;;;;;;;32.25;22.48;;;;;;;18.39;69.23;101376.66;4937916;29;20082;-77
2023/06/01 06:47:49;;;;;;;29.55;22.02;;;;;;;18.16;70.41;101387.41;4938804;29;20078;-78
2023/06/01 06:50:17;;;;;;;30.65;22.00;;;;;;;18.36;70.73;101382.34;4938465;29;20078;-77
2023/06/01 06:52:43;;;;;;;30.25;24.50;;;;;;;17.42;73.06;101394.63;4929703;29;20098;-77
2023/06/01 06:55:11;;;;;;;34.10;25.15;;;;;;;17.75;72.32;101389.78;4939727;29;20047;-77
2023/06/01 06:57:39;;;;;;;38.80;26.30;;;;;;;17.17;72.30;101386.09;4941136;29;20218;-79
2023/06/01 07:00:08;;;;;;;37.20;26.92;;;;;;;16.04;75.58;101390.44;4940642;29;20184;-79
2023/06/01 07:02:36;;;;;;;36.40;27.10;;;;;;;16.87;75.84;101401.94;4939075;29;20074;-78
2023/06/01 07:05:03;;;;;;;34.33;27.63;;;;;;;16.78;75.21;101403.00;4938415;29;20484;-77
2023/06/01 07:07:30;;;;;;;39.00;27.60;;;;;;;16.73;75.36;101392.13;4929645;29;20079;-77
2023/06/01 07:09:57;;;;;;;36.67;25.77;;;;;;;15.76;76.88;101400.63;4939657;29;20146;-78
2023/06/01 07:12:25;;;;;;;32.30;24.38;;;;;;;15.63;79.15;101410.88;4930776;29;20090;-77
2023/06/01 07:14:51;;;;;;;37.78;28.15;;;;;;;15.46;79.20;101408.28;4940296;29;20140;-80
2023/06/01 07:17:18;;;;;;;36.70;26.27;;;;;;;15.14;80.73;101409.16;4939756;29;20478;-78
2023/06/01 07:19:45;;;;;;;38.13;26.42;;;;;;;15.84;80.00;101408.50;4936977;29;20508;-77
2023/06/01 07:22:11;;;;;;;37.95;26.35;;;;;;;15.71;78.65;101395.84;4925060;29;20072;-77
2023/06/01 07:24:38;;;;;;;31.55;24.30;;;;;;;16.07;78.34;101403.28;4926615;29;20472;-77
2023/06/01 07:27:07;;;;;;;33.10;23.40;;;;;;;15.79;78.39;101400.28;4934431;29;20087;-80
2023/06/01 07:29:36;;;;;;;33.35;23.02;;;;;;;16.10;78.01;101405.56;4932763;29;20051;-76
2023/06/01 07:32:02;;;;;;;34.95;25.20;;;;;;;16.25;77.09;101402.00;4931194;29;20048;-76
2023/06/01 07:34:29;;;;;;;35.30;25.55;;;;;;;16.62;75.89;101395.16;4932027;29;20058;-79
2023/06/01 07:36:58;;;;;;;36.92;25.70;;;;;;;16.59;74.99;101395.50;4933270;29;20054;-77
2023/06/01 07:39:25;;;;;;;38.22;25.10;;;;;;;16.66;75.24;101404.41;4935009;29;20107;-77
2023/06/01 07:41:54;;;;;;;34.17;24.20;;;;;;;16.96;73.99;101393.94;4927622;29;20429;-77
2023/06/01 07:44:21;;;;;;;34.17;25.92;;;;;;;17.67;72.55;101397.81;4933004;29;20079;-77
2023/06/01 07:46:49;;;;;;;33.38;25.08;;;;;;;18.07;70.01;101392.00;4920934;29;20206;-77
2023/06/01 07:49:15;;;;;;;36.03;26.42;;;;;;;17.81;70.31;101394.34;4918098;29;20082;-76
2023/06/01 07:51:42;;;;;;;38.88;26.05;;;;;;;17.69;69.63;101387.88;4925293;29;20103;-77
2023/06/01 07:54:09;;;;;;;30.67;23.85;;;;;;;18.60;68.51;101389.06;4916497;29;20512;-78
2023/06/01 07:56:36;;;;;;;32.20;24.90;;;;;;;18.34;67.78;101384.34;4919071;29;20047;-76
2023/06/01 07:59:03;;;;;;;33.15;25.33;;;;;;;17.95;68.39;101398.00;4921190;29;20131;-78
2023/06/01 08:01:30;;;;;;;34.28;23.77;;;;;;;18.21;69.17;101396.44;4919070;29;20135;-75
2023/06/01 08:03:58;;;;;;;33.20;23.40;;;;;;;19.69;66.56;101396.44;4922628;29;20050;-76
2023/06/01 08:06:26;;;;;;;29.55;22.55;;;;;;;18.51;66.69;101394.50;4928713;29;20072;-75
2023/06/01 08:08:53;;;;;;;29.10;22.38;;;;;;;18.40;67.47;101388.91;4921094;29;20047;-75
2023/06/01 08:11:21;;;;;;;29.63;23.20;;;;;;;18.96;66.94;101391.63;4919711;29;20052;-76
2023/06/01 08:13:48;;;;;;;28.13;22.23;;;;;;;20.04;64.29;101386.53;4914767;29;20161;-75
2023/06/01 08:16:14;;;;;;;28.55;21.90;;;;;;;19.31;64.05;101379.25;4917354;29;20135;-78
2023/06/01 08:18:41;;;;;;;25.35;21.17;;;;;;;19.93;64.15;101397.72;4918727;29;20056;-77
2023/06/01 08:21:10;;;;;;;28.08;21.20;;;;;;;20.54;62.26;101384.41;4916288;29;20151;-77
2023/06/01 08:23:41;;;;;;;27.73;21.52;;;;;;;20.26;63.12;101383.75;4921993;29;20079;-76
2023/06/01 08:26:09;;;;;;;27.30;20.08;;;;;;;21.30;61.00;101376.81;4922009;29;20059;-77
2023/06/01 08:28:37;;;;;;;27.73;19.27;;;;;;;21.41;59.69;101373.50;4917515;29;20128;-76
2023/06/01 08:31:05;;;;;;;23.80;20.33;;;;;;;20.64;60.33;101363.56;4916220;29;20099;-78
2023/06/01 08:33:31;;;;;;;24.55;19.33;;;;;;;21.71;59.63;101370.34;4917117;29;20115;-78
2023/06/01 08:36:01;;;;;;;28.70;21.30;;;;;;;21.71;58.41;101365.84;4918397;29;20076;-76
2023/06/01 08:38:32;;;;;;;26.48;20.42;;;;;;;21.99;58.86;101368.16;4919944;29;20084;-78
2023/06/01 08:41:04;;;;;;;32.60;22.00;;;;;;;20.64;60.13;101376.06;4925035;29;20103;-78
2023/06/01 08:43:33;;;;;;;29.20;22.27;;;;;;;20.35;61.20;101372.69;4924403;29;20076;-77
2023/06/01 08:46:00;;;;;;;29.25;21.23;;;;;;;20.01;61.70;101376.31;4915186;29;20063;-78
2023/06/01 08:48:28;;;;;;;28.50;20.38;;;;;;;21.00;61.36;101378.28;4916207;29;20127;-78
2023/06/01 08:50:57;;;;;;;25.95;21.35;;;;;;;20.98;60.08;101364.38;4914782;29;20131;-77
2023/06/01 08:53:24;;;;;;;28.58;21.05;;;;;;;20.50;61.24;101369.91;4915658;29;20111;-78
2023/06/01 08:55:53;;;;;;;25.77;20.85;;;;;;;21.10;60.93;101374.19;4909844;29;20044;-77
2023/06/01 08:58:21;;;;;;;28.10;20.45;;;;;;;19.98;60.57;101363.44;4927541;29;20130;-77
2023/06/01 09:00:55;;;;;;;25.55;19.83;;;;;;;20.40;60.61;101356.19;4921284;29;20050;-79
2023/06/01 09:03:22;;;;;;;28.60;19.80;;;;;;;19.46;61.78;101364.00;4922498;29;20052;-76
2023/06/01 09:05:48;;;;;;;30.00;20.83;;;;;;;19.67;61.84;101355.97;4916623;29;20040;-75
2023/06/01 09:08:16;;;;;;;23.83;19.92;;;;;;;20.44;60.51;101352.09;4911513;29;20135;-76
2023/06/01 09:10:42;;;;;;;28.85;20.63;;;;;;;20.75;59.63;101351.50;4915609;29;20080;-76
2023/06/01 09:13:10;;;;;;;31.83;22.33;;;;;;;20.62;59.00;101344.34;4916449;29;20107;-77
2023/06/01 09:15:51;;;;;;;28.08;22.48;;;;;;;20.47;59.50;101339.22;4916646;29;20384;-77
2023/06/01 09:18:18;;;;;;;31.48;22.35;;;;;;;20.44;60.57;101347.59;4911751;29;20077;-76
2023/06/01 09:20:44;;;;;;;31.65;22.02;;;;;;;20.55;59.15;101343.53;4921432;29;20496;-77
2023/06/01 09:23:12;;;;;;;30.23;22.40;;;;;;;20.81;58.75;101334.69;4933852;29;20094;-76
2023/06/01 09:25:38;;;;;;;31.42;22.70;;;;;;;21.23;57.18;101325.47;4937814;29;20138;-77
2023/06/01 09:28:06;;;;;;;28.70;21.58;;;;;;;21.74;57.09;101327.31;4938360;29;20134;-78
2023/06/01 09:30:42;;;;;;;29.10;21.33;;;;;;;21.52;56.67;101318.78;4939165;29;20090;-78
2023/06/01 09:33:13;;;;;;;28.20;22.58;;;;;;;20.97;57.03;101317.50;4932606;29;20056;-76
2023/06/01 09:35:43;;;;;;;30.13;23.20;;;;;;;20.54;57.61;101315.28;4930495;29;20055;-78
2023/06/01 09:38:10;;;;;;;31.38;23.13;;;;;;;20.70;58.29;101320.22;4937661;29;20130;-77
2023/06/01 09:40:39;;;;;;;27.65;23.88;;;;;;;21.03;57.22;101309.50;4938203;29;20079;-78
2023/06/01 09:43:20;;;;;;;31.35;22.15;;;;;;;21.36;56.77;101309.44;4932536;29;20132;-78
2023/06/01 09:46:04;;;;;;;33.73;23.63;;;;;;;21.24;57.33;101313.78;4922082;29;20236;-77
2023/06/01 09:48:31;;;;;;;36.72;25.95;;;;;;;19.92;58.99;101304.97;4928622;29;20083;-78
2023/06/01 09:50:58;;;;;;;32.22;24.98;;;;;;;21.04;58.58;101307.66;4932154;29;20063;-77
2023/06/01 09:53:25;;;;;;;29.65;23.50;;;;;;;20.51;57.61;101292.59;4926642;29;20106;-77
2023/06/01 09:55:58;;;;;;;31.33;23.83;;;;;;;20.43;58.31;101295.44;4932978;29;20048;-76
2023/06/01 09:58:25;;;;;;;33.45;23.40;;;;;;;20.43;59.10;101307.94;4925438;29;20070;-76
2023/06/01 10:00:53;;;;;;;30.35;23.83;;;;;;;21.03;58.28;101295.38;4929076;29;20120;-77
2023/06/01 10:03:22;;;;;;;34.17;25.27;;;;;;;20.99;58.36;101294.16;4937817;29;20047;-78
2023/06/01 10:05:49;;;;;;;33.65;26.15;;;;;;;21.01;58.52;101290.28;4923975;29;20146;-76
2023/06/01 10:08:18;;;;;;;33.72;24.58;;;;;;;21.31;58.11;101295.94;4938308;29;20135;-78
2023/06/01 10:10:47;;;;;;;34.90;25.38;;;;;;;21.16;58.02;101298.00;4937154;29;20130;-76
2023/06/01 10:13:14;;;;;;;36.10;26.75;;;;;;;21.10;57.97;101301.50;4936495;29;20393;-76
2023/06/01 10:15:40;;;;;;;33.60;26.40;;;;;;;20.96;58.27;101291.91;4936974;29;20422;-77
2023/06/01 10:18:09;;;;;;;43.13;30.45;;;;;;;21.17;58.75;101305.78;4936480;29;20094;-77
2023/06/01 10:20:38;;;;;;;40.50;32.22;;;;;;;21.02;58.73;101297.22;4921150;29;20058;-78
2023/06/01 10:23:06;;;;;;;42.92;33.38;;;;;;;21.13;58.57;101303.75;4936073;29;20099;-76
2023/06/01 10:25:49;;;;;;;46.85;34.45;;;;;;;21.42;58.27;101289.94;4934715;29;20087;-77
2023/06/01 10:28:20;;;;;;;39.88;32.28;;;;;;;21.47;57.92;101279.50;4916735;29;20070;-76
2023/06/01 10:30:47;;;;;;;46.65;34.47;;;;;;;21.28;57.72;101284.88;4911388;29;20067;-76
2023/06/01 10:33:15;;;;;;;46.30;34.13;;;;;;;21.07;58.12;101278.78;4921589;29;20119;-78
2023/06/01 10:36:05;;;;;;;41.13;32.03;;;;;;;21.31;58.34;101273.81;4937441;29;20064;-79
2023/06/01 10:38:32;;;;;;;40.03;31.08;;;;;;;21.51;57.38;101271.91;4938371;29;20135;-78
2023/06/01 10:41:30;;;;;;;43.25;31.85;;;;;;;21.71;56.95;101277.13;4940394;29;20063;-78
2023/06/01 10:43:57;;;;;;;42.38;32.33;;;;;;;21.57;56.99;101276.38;4928664;29;20480;-79
2023/06/01 10:46:43;;;;;;;45.78;32.40;;;;;;;21.43;57.67;101280.94;4940001;29;20130;-78
2023/06/01 10:49:14;;;;;;;44.72;31.52;;;;;;;21.32;57.32;101278.94;4932277;29;20479;-79
2023/06/01 10:51:41;;;;;;;40.70;31.73;;;;;;;21.71;57.14;101263.81;4926604;29;20126;-79
2023/06/01 10:54:29;;;;;;;43.25;30.23;;;;;;;20.99;57.28;101267.56;4941039;29;20134;-78
2023/06/01 10:57:22;;;;;;;42.40;31.08;;;;;;;21.17;56.91;101273.84;4942033;29;20401;-79
2023/06/01 11:00:17;;;;;;;40.28;29.17;;;;;;;21.73;57.08;101280.41;4929650;29;20072;-79
2023/06/01 11:02:50;;;;;;;46.00;29.88;;;;;;;21.28;56.48;101253.75;4932106;29;20139;-78
2023/06/01 11:05:46;;;;;;;39.78;30.98;;;;;;;21.61;56.46;101258.94;4932887;29;20063;-79
2023/06/01 11:08:55;;;;;;;37.72;26.90;;;;;;;21.17;56.05;101254.41;4930126;29;20058;-78
2023/06/01 11:11:24;;;;;;;35.75;25.95;;;;;;;21.47;55.04;101247.53;4931565;29;20527;-78
2023/06/01 11:14:18;;;;;;;38.05;26.58;;;;;;;21.66;54.91;101250.31;4940030;29;20056;-78
2023/06/01 11:16:45;;;;;;;36.35;27.17;;;;;;;21.91;54.50;101237.84;4895111;29;20586;-78
2023/06/01 11:19:20;;;;;;;34.22;24.92;;;;;;;21.67;53.75;101230.63;4939933;29;20134;-79